Terminal Aerodrome Forecast
Issued by NWS Charleston, WV

Current Version | Previous Version | Text Only | Print | Product List | Glossary Off
Versions: 1 2 3 4 5 6 7 8 9 10 11 12 13 14 15 16 17 18 19 20 21 22 23 24

000
FTUS41 KRLX 141723
TAFHTS
TAF
KHTS 141723Z 1418/1518 20007KT P6SM SKC
     FM151400 22010KT P6SM SCT250
     FM151500 22011G17KT P6SM SCT035
     FM151600 22012G21KT P6SM BKN035=

USA.gov is the U.S. government's official web portal to all federal, state and local government web resources and services.